sensor_id;sensor_type;location;lat;lon;timestamp;temperature;humidity
46562;DHT22;32289;42.688;23.330;2024-03-02T00:01:44;7.50;99.90
46562;DHT22;32289;42.688;23.330;2024-03-02T00:05:24;7.50;99.90
46562;DHT22;32289;42.688;23.330;2024-03-02T00:09:05;7.70;99.90
46562;DHT22;32289;42.688;23.330;2024-03-02T00:12:47;7.70;99.90
46562;DHT22;32289;42.688;23.330;2024-03-02T00:16:31;7.70;99.90
46562;DHT22;32289;42.688;23.330;2024-03-02T00:20:18;7.70;99.90
46562;DHT22;32289;42.688;23.330;2024-03-02T00:28:04;7.70;99.90
46562;DHT22;32289;42.688;23.330;2024-03-02T00:31:47;7.70;99.90
46562;DHT22;32289;42.688;23.330;2024-03-02T00:35:29;7.70;99.90
46562;DHT22;32289;42.688;23.330;2024-03-02T00:39:12;7.80;99.90
46562;DHT22;32289;42.688;23.330;2024-03-02T00:42:53;7.80;99.90
46562;DHT22;32289;42.688;23.330;2024-03-02T00:46:39;7.70;99.90
46562;DHT22;32289;42.688;23.330;2024-03-02T00:50:20;7.70;99.90
46562;DHT22;32289;42.688;23.330;2024-03-02T00:54:04;7.60;99.90
46562;DHT22;32289;42.688;23.330;2024-03-02T00:57:45;7.60;99.90
46562;DHT22;32289;42.688;23.330;2024-03-02T01:01:25;7.60;99.90
46562;DHT22;32289;42.688;23.330;2024-03-02T01:05:07;7.70;99.90
46562;DHT22;32289;42.688;23.330;2024-03-02T01:08:48;7.80;99.90
46562;DHT22;32289;42.688;23.330;2024-03-02T01:12:31;7.90;99.90
46562;DHT22;32289;42.688;23.330;2024-03-02T01:16:12;7.90;99.90
46562;DHT22;32289;42.688;23.330;2024-03-02T01:19:53;7.90;99.90
46562;DHT22;32289;42.688;23.330;2024-03-02T01:23:33;7.90;99.90
46562;DHT22;32289;42.688;23.330;2024-03-02T01:27:14;8.00;99.90
46562;DHT22;32289;42.688;23.330;2024-03-02T01:30:55;8.00;99.90
46562;DHT22;32289;42.688;23.330;2024-03-02T01:34:36;7.90;99.90
46562;DHT22;32289;42.688;23.330;2024-03-02T01:38:17;7.90;99.90
46562;DHT22;32289;42.688;23.330;2024-03-02T01:41:58;7.90;99.90
46562;DHT22;32289;42.688;23.330;2024-03-02T01:45:38;7.80;99.90
46562;DHT22;32289;42.688;23.330;2024-03-02T01:49:19;7.70;99.90
46562;DHT22;32289;42.688;23.330;2024-03-02T01:53:01;7.80;99.90
46562;DHT22;32289;42.688;23.330;2024-03-02T01:56:45;7.90;99.90
46562;DHT22;32289;42.688;23.330;2024-03-02T02:00:26;7.90;99.90
46562;DHT22;32289;42.688;23.330;2024-03-02T02:04:06;7.80;99.90
46562;DHT22;32289;42.688;23.330;2024-03-02T02:07:47;7.70;99.90
46562;DHT22;32289;42.688;23.330;2024-03-02T02:11:28;7.70;99.90
46562;DHT22;32289;42.688;23.330;2024-03-02T02:15:28;7.60;99.90
46562;DHT22;32289;42.688;23.330;2024-03-02T02:19:09;7.50;99.90
46562;DHT22;32289;42.688;23.330;2024-03-02T02:23:00;7.30;99.90
46562;DHT22;32289;42.688;23.330;2024-03-02T02:26:41;7.20;99.90
46562;DHT22;32289;42.688;23.330;2024-03-02T02:30:27;7.30;99.90
46562;DHT22;32289;42.688;23.330;2024-03-02T02:34:08;7.20;99.90
46562;DHT22;32289;42.688;23.330;2024-03-02T02:37:50;7.20;99.90
46562;DHT22;32289;42.688;23.330;2024-03-02T02:41:31;7.20;99.90
46562;DHT22;32289;42.688;23.330;2024-03-02T02:45:11;7.40;99.90
46562;DHT22;32289;42.688;23.330;2024-03-02T02:48:54;7.50;99.90
46562;DHT22;32289;42.688;23.330;2024-03-02T02:52:36;7.60;99.90
46562;DHT22;32289;42.688;23.330;2024-03-02T02:56:18;7.30;99.90
46562;DHT22;32289;42.688;23.330;2024-03-02T02:59:59;7.30;99.90
46562;DHT22;32289;42.688;23.330;2024-03-02T03:03:40;7.30;99.90
46562;DHT22;32289;42.688;23.330;2024-03-02T03:07:21;7.50;99.90
46562;DHT22;32289;42.688;23.330;2024-03-02T03:11:02;7.40;99.90
46562;DHT22;32289;42.688;23.330;2024-03-02T03:14:42;7.40;99.90
46562;DHT22;32289;42.688;23.330;2024-03-02T03:18:23;7.40;99.90
46562;DHT22;32289;42.688;23.330;2024-03-02T03:22:04;7.40;99.90
46562;DHT22;32289;42.688;23.330;2024-03-02T03:25:45;7.30;99.90
46562;DHT22;32289;42.688;23.330;2024-03-02T03:29:25;7.20;99.90
46562;DHT22;32289;42.688;23.330;2024-03-02T03:33:06;7.20;99.90
46562;DHT22;32289;42.688;23.330;2024-03-02T03:36:47;7.30;99.90
46562;DHT22;32289;42.688;23.330;2024-03-02T03:40:28;7.20;99.90
46562;DHT22;32289;42.688;23.330;2024-03-02T03:44:08;7.20;99.90
46562;DHT22;32289;42.688;23.330;2024-03-02T03:47:49;7.10;99.90
46562;DHT22;32289;42.688;23.330;2024-03-02T03:51:29;7.20;99.90
46562;DHT22;32289;42.688;23.330;2024-03-02T03:55:11;7.20;99.90
46562;DHT22;32289;42.688;23.330;2024-03-02T03:58:51;7.20;99.90
46562;DHT22;32289;42.688;23.330;2024-03-02T04:02:33;7.20;99.90
46562;DHT22;32289;42.688;23.330;2024-03-02T04:06:14;7.30;99.90
46562;DHT22;32289;42.688;23.330;2024-03-02T04:09:56;7.20;99.90
46562;DHT22;32289;42.688;23.330;2024-03-02T04:13:37;7.30;99.90
46562;DHT22;32289;42.688;23.330;2024-03-02T04:17:18;7.50;99.90
46562;DHT22;32289;42.688;23.330;2024-03-02T04:20:59;7.60;99.90
46562;DHT22;32289;42.688;23.330;2024-03-02T04:24:39;7.60;99.90
46562;DHT22;32289;42.688;23.330;2024-03-02T04:28:21;7.70;99.90
46562;DHT22;32289;42.688;23.330;2024-03-02T04:32:01;7.60;99.90
46562;DHT22;32289;42.688;23.330;2024-03-02T04:35:42;7.60;99.90
46562;DHT22;32289;42.688;23.330;2024-03-02T04:39:24;7.50;99.90
46562;DHT22;32289;42.688;23.330;2024-03-02T04:43:05;7.60;99.90
46562;DHT22;32289;42.688;23.330;2024-03-02T04:46:46;7.50;99.90
46562;DHT22;32289;42.688;23.330;2024-03-02T04:50:26;7.40;99.90
46562;DHT22;32289;42.688;23.330;2024-03-02T04:54:07;7.50;99.90
46562;DHT22;32289;42.688;23.330;2024-03-02T04:57:47;7.40;99.90
46562;DHT22;32289;42.688;23.330;2024-03-02T05:01:28;7.40;99.90
46562;DHT22;32289;42.688;23.330;2024-03-02T05:05:09;7.30;99.90
46562;DHT22;32289;42.688;23.330;2024-03-02T05:08:49;7.30;99.90
46562;DHT22;32289;42.688;23.330;2024-03-02T05:12:30;7.20;99.90
46562;DHT22;32289;42.688;23.330;2024-03-02T05:16:22;7.00;99.90
46562;DHT22;32289;42.688;23.330;2024-03-02T05:20:04;7.20;99.90
46562;DHT22;32289;42.688;23.330;2024-03-02T05:23:46;7.10;99.90
46562;DHT22;32289;42.688;23.330;2024-03-02T05:27:29;7.20;99.90
46562;DHT22;32289;42.688;23.330;2024-03-02T05:31:11;7.20;99.90
46562;DHT22;32289;42.688;23.330;2024-03-02T05:34:54;7.40;99.90
46562;DHT22;32289;42.688;23.330;2024-03-02T05:38:35;7.50;99.90
46562;DHT22;32289;42.688;23.330;2024-03-02T05:42:16;7.50;99.90
46562;DHT22;32289;42.688;23.330;2024-03-02T05:45:59;7.50;99.90
46562;DHT22;32289;42.688;23.330;2024-03-02T05:49:40;7.30;99.90
46562;DHT22;32289;42.688;23.330;2024-03-02T05:53:21;7.40;99.90
46562;DHT22;32289;42.688;23.330;2024-03-02T05:57:02;7.30;99.90
46562;DHT22;32289;42.688;23.330;2024-03-02T06:00:57;7.20;99.90
46562;DHT22;32289;42.688;23.330;2024-03-02T06:04:37;7.10;99.90
46562;DHT22;32289;42.688;23.330;2024-03-02T06:08:18;7.10;99.90
46562;DHT22;32289;42.688;23.330;2024-03-02T06:11:59;7.20;99.90
46562;DHT22;32289;42.688;23.330;2024-03-02T06:15:40;7.30;99.90
46562;DHT22;32289;42.688;23.330;2024-03-02T06:19:20;7.20;99.90
46562;DHT22;32289;42.688;23.330;2024-03-02T06:23:01;7.10;99.90
46562;DHT22;32289;42.688;23.330;2024-03-02T06:26:42;7.00;99.90
46562;DHT22;32289;42.688;23.330;2024-03-02T06:30:23;7.10;99.90
46562;DHT22;32289;42.688;23.330;2024-03-02T06:34:04;7.00;99.90
46562;DHT22;32289;42.688;23.330;2024-03-02T06:37:45;7.00;99.90
46562;DHT22;32289;42.688;23.330;2024-03-02T06:41:26;6.90;99.90
46562;DHT22;32289;42.688;23.330;2024-03-02T06:45:07;7.00;99.90
46562;DHT22;32289;42.688;23.330;2024-03-02T06:48:48;6.90;99.90
46562;DHT22;32289;42.688;23.330;2024-03-02T06:52:28;7.00;99.90
46562;DHT22;32289;42.688;23.330;2024-03-02T06:56:09;7.00;99.90
46562;DHT22;32289;42.688;23.330;2024-03-02T06:59:50;7.10;99.90
46562;DHT22;32289;42.688;23.330;2024-03-02T07:03:31;7.20;99.90
46562;DHT22;32289;42.688;23.330;2024-03-02T07:07:13;7.10;99.90
46562;DHT22;32289;42.688;23.330;2024-03-02T07:10:54;7.10;99.90
46562;DHT22;32289;42.688;23.330;2024-03-02T07:14:35;7.00;99.90
46562;DHT22;32289;42.688;23.330;2024-03-02T07:18:34;6.90;99.90
46562;DHT22;32289;42.688;23.330;2024-03-02T07:22:20;6.90;99.90
46562;DHT22;32289;42.688;23.330;2024-03-02T07:26:01;6.90;99.90
46562;DHT22;32289;42.688;23.330;2024-03-02T07:29:42;7.00;99.90
46562;DHT22;32289;42.688;23.330;2024-03-02T07:33:23;6.90;99.90
46562;DHT22;32289;42.688;23.330;2024-03-02T07:37:04;6.90;99.90
46562;DHT22;32289;42.688;23.330;2024-03-02T07:40:46;6.90;99.90
46562;DHT22;32289;42.688;23.330;2024-03-02T07:44:27;6.90;99.90
46562;DHT22;32289;42.688;23.330;2024-03-02T07:48:07;7.10;99.90
46562;DHT22;32289;42.688;23.330;2024-03-02T07:51:48;7.00;99.90
46562;DHT22;32289;42.688;23.330;2024-03-02T07:55:29;7.10;99.90
46562;DHT22;32289;42.688;23.330;2024-03-02T07:59:10;7.10;99.90
46562;DHT22;32289;42.688;23.330;2024-03-02T08:02:51;7.20;99.90
46562;DHT22;32289;42.688;23.330;2024-03-02T08:06:32;7.20;99.90
46562;DHT22;32289;42.688;23.330;2024-03-02T08:10:13;7.30;99.90
46562;DHT22;32289;42.688;23.330;2024-03-02T08:13:54;7.20;99.90
46562;DHT22;32289;42.688;23.330;2024-03-02T08:17:35;7.20;99.90
46562;DHT22;32289;42.688;23.330;2024-03-02T08:21:16;7.50;99.90
46562;DHT22;32289;42.688;23.330;2024-03-02T08:24:56;7.40;99.90
46562;DHT22;32289;42.688;23.330;2024-03-02T08:28:37;7.30;99.90
46562;DHT22;32289;42.688;23.330;2024-03-02T08:32:20;7.50;99.90
46562;DHT22;32289;42.688;23.330;2024-03-02T08:36:01;7.30;99.90
46562;DHT22;32289;42.688;23.330;2024-03-02T08:39:43;7.30;99.90
46562;DHT22;32289;42.688;23.330;2024-03-02T08:43:25;7.50;99.90
46562;DHT22;32289;42.688;23.330;2024-03-02T08:47:06;7.60;99.90
46562;DHT22;32289;42.688;23.330;2024-03-02T08:50:47;7.70;99.90
46562;DHT22;32289;42.688;23.330;2024-03-02T08:54:28;7.60;99.90
46562;DHT22;32289;42.688;23.330;2024-03-02T08:58:08;7.80;99.90
46562;DHT22;32289;42.688;23.330;2024-03-02T09:01:49;8.00;99.90
46562;DHT22;32289;42.688;23.330;2024-03-02T09:05:30;8.10;99.90
46562;DHT22;32289;42.688;23.330;2024-03-02T09:09:10;8.40;99.90
46562;DHT22;32289;42.688;23.330;2024-03-02T09:12:51;8.50;99.90
46562;DHT22;32289;42.688;23.330;2024-03-02T09:16:32;8.60;99.90
46562;DHT22;32289;42.688;23.330;2024-03-02T09:20:13;8.30;99.90
46562;DHT22;32289;42.688;23.330;2024-03-02T09:23:54;8.40;99.90
46562;DHT22;32289;42.688;23.330;2024-03-02T09:27:38;8.50;99.90
46562;DHT22;32289;42.688;23.330;2024-03-02T09:31:19;8.70;99.90
46562;DHT22;32289;42.688;23.330;2024-03-02T09:35:00;8.50;99.90
46562;DHT22;32289;42.688;23.330;2024-03-02T09:38:41;8.60;99.90
46562;DHT22;32289;42.688;23.330;2024-03-02T09:42:22;8.60;99.90
46562;DHT22;32289;42.688;23.330;2024-03-02T09:46:03;8.70;99.90
46562;DHT22;32289;42.688;23.330;2024-03-02T09:49:44;8.90;99.90
46562;DHT22;32289;42.688;23.330;2024-03-02T09:53:25;8.80;99.90
46562;DHT22;32289;42.688;23.330;2024-03-02T09:57:09;8.90;99.90
46562;DHT22;32289;42.688;23.330;2024-03-02T10:00:50;8.80;99.90
46562;DHT22;32289;42.688;23.330;2024-03-02T10:04:32;9.10;99.90
46562;DHT22;32289;42.688;23.330;2024-03-02T10:08:13;9.10;99.90
46562;DHT22;32289;42.688;23.330;2024-03-02T10:12:01;8.90;99.90
46562;DHT22;32289;42.688;23.330;2024-03-02T10:15:43;8.80;99.90
46562;DHT22;32289;42.688;23.330;2024-03-02T10:19:24;8.90;99.90
46562;DHT22;32289;42.688;23.330;2024-03-02T10:23:14;8.90;99.90
46562;DHT22;32289;42.688;23.330;2024-03-02T10:26:55;8.90;99.90
46562;DHT22;32289;42.688;23.330;2024-03-02T10:30:37;8.70;99.90
46562;DHT22;32289;42.688;23.330;2024-03-02T10:34:18;8.50;99.90
46562;DHT22;32289;42.688;23.330;2024-03-02T10:37:59;8.50;99.90
46562;DHT22;32289;42.688;23.330;2024-03-02T10:41:44;8.70;99.90
46562;DHT22;32289;42.688;23.330;2024-03-02T10:45:26;8.40;99.90
46562;DHT22;32289;42.688;23.330;2024-03-02T10:49:06;8.30;99.90
46562;DHT22;32289;42.688;23.330;2024-03-02T10:52:47;8.50;99.90
46562;DHT22;32289;42.688;23.330;2024-03-02T10:56:30;8.60;99.90
46562;DHT22;32289;42.688;23.330;2024-03-02T11:00:12;8.70;99.90
46562;DHT22;32289;42.688;23.330;2024-03-02T11:03:56;8.60;99.90
46562;DHT22;32289;42.688;23.330;2024-03-02T11:07:37;8.60;99.90
46562;DHT22;32289;42.688;23.330;2024-03-02T11:11:22;8.80;99.90
46562;DHT22;32289;42.688;23.330;2024-03-02T11:15:11;8.90;99.90
46562;DHT22;32289;42.688;23.330;2024-03-02T11:18:55;8.90;99.90
46562;DHT22;32289;42.688;23.330;2024-03-02T11:22:36;8.70;99.90
46562;DHT22;32289;42.688;23.330;2024-03-02T11:26:21;8.80;99.90
46562;DHT22;32289;42.688;23.330;2024-03-02T11:30:02;8.60;99.90
46562;DHT22;32289;42.688;23.330;2024-03-02T11:33:43;8.60;99.90
46562;DHT22;32289;42.688;23.330;2024-03-02T11:37:24;8.60;99.90
46562;DHT22;32289;42.688;23.330;2024-03-02T11:41:07;8.80;99.90
46562;DHT22;32289;42.688;23.330;2024-03-02T11:44:49;8.90;99.90
46562;DHT22;32289;42.688;23.330;2024-03-02T11:48:29;8.90;99.90
46562;DHT22;32289;42.688;23.330;2024-03-02T11:52:12;8.70;99.90
46562;DHT22;32289;42.688;23.330;2024-03-02T11:55:55;8.70;99.90
46562;DHT22;32289;42.688;23.330;2024-03-02T11:59:36;8.70;99.90
46562;DHT22;32289;42.688;23.330;2024-03-02T12:03:16;8.90;99.90
46562;DHT22;32289;42.688;23.330;2024-03-02T12:06:59;8.90;99.90
46562;DHT22;32289;42.688;23.330;2024-03-02T12:10:42;9.00;99.90
46562;DHT22;32289;42.688;23.330;2024-03-02T12:14:24;9.20;99.90
46562;DHT22;32289;42.688;23.330;2024-03-02T12:18:05;9.00;99.90
46562;DHT22;32289;42.688;23.330;2024-03-02T12:21:46;9.20;99.90
46562;DHT22;32289;42.688;23.330;2024-03-02T12:25:27;9.20;99.90
46562;DHT22;32289;42.688;23.330;2024-03-02T12:29:08;9.50;99.90
46562;DHT22;32289;42.688;23.330;2024-03-02T12:32:50;9.30;99.90
46562;DHT22;32289;42.688;23.330;2024-03-02T12:36:37;9.30;99.90
46562;DHT22;32289;42.688;23.330;2024-03-02T12:40:19;9.20;99.90
46562;DHT22;32289;42.688;23.330;2024-03-02T12:44:00;9.40;99.90
46562;DHT22;32289;42.688;23.330;2024-03-02T12:47:42;9.60;99.90
46562;DHT22;32289;42.688;23.330;2024-03-02T12:51:23;9.50;99.90
46562;DHT22;32289;42.688;23.330;2024-03-02T12:55:06;9.60;99.90
46562;DHT22;32289;42.688;23.330;2024-03-02T12:58:47;9.30;99.90
46562;DHT22;32289;42.688;23.330;2024-03-02T13:02:31;9.40;99.90
46562;DHT22;32289;42.688;23.330;2024-03-02T13:06:11;9.60;99.90
46562;DHT22;32289;42.688;23.330;2024-03-02T13:09:56;9.90;99.90
46562;DHT22;32289;42.688;23.330;2024-03-02T13:13:36;9.70;99.90
46562;DHT22;32289;42.688;23.330;2024-03-02T13:17:19;9.20;99.90
46562;DHT22;32289;42.688;23.330;2024-03-02T13:21:00;9.20;99.90
46562;DHT22;32289;42.688;23.330;2024-03-02T13:24:41;9.20;99.90
46562;DHT22;32289;42.688;23.330;2024-03-02T13:28:23;9.00;99.90
46562;DHT22;32289;42.688;23.330;2024-03-02T13:32:04;9.40;99.90
46562;DHT22;32289;42.688;23.330;2024-03-02T13:35:45;9.40;99.90
46562;DHT22;32289;42.688;23.330;2024-03-02T13:39:25;9.20;99.90
46562;DHT22;32289;42.688;23.330;2024-03-02T13:43:06;9.20;99.90
46562;DHT22;32289;42.688;23.330;2024-03-02T13:46:47;9.20;99.90
46562;DHT22;32289;42.688;23.330;2024-03-02T13:50:29;9.30;99.90
46562;DHT22;32289;42.688;23.330;2024-03-02T13:54:10;9.10;99.90
46562;DHT22;32289;42.688;23.330;2024-03-02T13:57:51;9.10;99.90
46562;DHT22;32289;42.688;23.330;2024-03-02T14:01:32;9.10;99.90
46562;DHT22;32289;42.688;23.330;2024-03-02T14:05:13;9.20;99.90
46562;DHT22;32289;42.688;23.330;2024-03-02T14:08:54;9.20;99.90
46562;DHT22;32289;42.688;23.330;2024-03-02T14:12:35;9.10;99.90
46562;DHT22;32289;42.688;23.330;2024-03-02T14:16:16;9.40;99.90
46562;DHT22;32289;42.688;23.330;2024-03-02T14:19:57;9.50;99.90
46562;DHT22;32289;42.688;23.330;2024-03-02T14:23:39;9.70;99.90
46562;DHT22;32289;42.688;23.330;2024-03-02T14:27:21;9.80;99.90
46562;DHT22;32289;42.688;23.330;2024-03-02T14:31:01;9.80;99.90
46562;DHT22;32289;42.688;23.330;2024-03-02T14:34:42;9.60;99.90
46562;DHT22;32289;42.688;23.330;2024-03-02T14:38:23;9.60;99.90
46562;DHT22;32289;42.688;23.330;2024-03-02T14:42:04;9.50;99.90
46562;DHT22;32289;42.688;23.330;2024-03-02T14:45:45;9.40;99.90
46562;DHT22;32289;42.688;23.330;2024-03-02T14:49:26;9.60;99.90
46562;DHT22;32289;42.688;23.330;2024-03-02T14:53:06;9.50;99.90
46562;DHT22;32289;42.688;23.330;2024-03-02T14:56:47;9.40;99.90
46562;DHT22;32289;42.688;23.330;2024-03-02T15:00:28;9.70;99.90
46562;DHT22;32289;42.688;23.330;2024-03-02T15:04:09;9.70;99.90
46562;DHT22;32289;42.688;23.330;2024-03-02T15:07:50;10.00;99.90
46562;DHT22;32289;42.688;23.330;2024-03-02T15:11:31;10.20;99.90
46562;DHT22;32289;42.688;23.330;2024-03-02T15:15:11;10.00;99.90
46562;DHT22;32289;42.688;23.330;2024-03-02T15:18:52;10.00;99.90
46562;DHT22;32289;42.688;23.330;2024-03-02T15:22:33;10.10;99.90
46562;DHT22;32289;42.688;23.330;2024-03-02T15:26:13;10.20;99.90
46562;DHT22;32289;42.688;23.330;2024-03-02T15:29:54;9.90;99.90
46562;DHT22;32289;42.688;23.330;2024-03-02T15:33:37;9.70;99.90
46562;DHT22;32289;42.688;23.330;2024-03-02T15:37:18;9.80;99.90
46562;DHT22;32289;42.688;23.330;2024-03-02T15:40:59;9.70;99.90
46562;DHT22;32289;42.688;23.330;2024-03-02T15:44:40;9.50;99.90
46562;DHT22;32289;42.688;23.330;2024-03-02T15:48:21;9.60;99.90
46562;DHT22;32289;42.688;23.330;2024-03-02T15:52:03;9.40;99.90
46562;DHT22;32289;42.688;23.330;2024-03-02T15:55:44;9.70;99.90
46562;DHT22;32289;42.688;23.330;2024-03-02T15:59:25;9.70;99.90
46562;DHT22;32289;42.688;23.330;2024-03-02T16:03:06;9.60;99.90
46562;DHT22;32289;42.688;23.330;2024-03-02T16:06:46;9.50;99.90
46562;DHT22;32289;42.688;23.330;2024-03-02T16:10:27;9.60;99.90
46562;DHT22;32289;42.688;23.330;2024-03-02T16:14:08;9.50;99.90
46562;DHT22;32289;42.688;23.330;2024-03-02T16:17:49;9.40;99.90
46562;DHT22;32289;42.688;23.330;2024-03-02T16:21:29;9.20;99.90
46562;DHT22;32289;42.688;23.330;2024-03-02T16:25:10;9.00;99.90
46562;DHT22;32289;42.688;23.330;2024-03-02T16:28:52;9.20;99.90
46562;DHT22;32289;42.688;23.330;2024-03-02T16:32:32;9.10;99.90
46562;DHT22;32289;42.688;23.330;2024-03-02T16:36:14;9.10;99.90
46562;DHT22;32289;42.688;23.330;2024-03-02T16:39:54;9.10;99.90
46562;DHT22;32289;42.688;23.330;2024-03-02T16:43:37;9.10;99.90
46562;DHT22;32289;42.688;23.330;2024-03-02T16:47:17;9.10;99.90
46562;DHT22;32289;42.688;23.330;2024-03-02T16:50:58;9.00;99.90
46562;DHT22;32289;42.688;23.330;2024-03-02T16:54:39;8.90;99.90
46562;DHT22;32289;42.688;23.330;2024-03-02T16:58:19;8.90;99.90
46562;DHT22;32289;42.688;23.330;2024-03-02T17:02:00;8.90;99.90
46562;DHT22;32289;42.688;23.330;2024-03-02T17:05:41;8.90;99.90
46562;DHT22;32289;42.688;23.330;2024-03-02T17:09:21;8.90;99.90
46562;DHT22;32289;42.688;23.330;2024-03-02T17:13:02;9.00;99.90
46562;DHT22;32289;42.688;23.330;2024-03-02T17:16:44;9.10;99.90
46562;DHT22;32289;42.688;23.330;2024-03-02T17:20:24;9.00;99.90
46562;DHT22;32289;42.688;23.330;2024-03-02T17:24:05;8.90;99.90
46562;DHT22;32289;42.688;23.330;2024-03-02T17:27:46;8.90;99.90
46562;DHT22;32289;42.688;23.330;2024-03-02T17:31:27;8.90;99.90
46562;DHT22;32289;42.688;23.330;2024-03-02T17:35:08;9.00;99.90
46562;DHT22;32289;42.688;23.330;2024-03-02T17:38:48;8.90;99.90
46562;DHT22;32289;42.688;23.330;2024-03-02T17:42:29;8.90;99.90
46562;DHT22;32289;42.688;23.330;2024-03-02T17:46:10;8.80;99.90
46562;DHT22;32289;42.688;23.330;2024-03-02T17:49:50;8.80;99.90
46562;DHT22;32289;42.688;23.330;2024-03-02T17:53:31;8.70;99.90
46562;DHT22;32289;42.688;23.330;2024-03-02T17:57:12;8.80;99.90
46562;DHT22;32289;42.688;23.330;2024-03-02T18:00:52;8.80;99.90
46562;DHT22;32289;42.688;23.330;2024-03-02T18:04:33;8.60;99.90
46562;DHT22;32289;42.688;23.330;2024-03-02T18:08:16;8.50;99.90
46562;DHT22;32289;42.688;23.330;2024-03-02T18:11:56;8.40;99.90
46562;DHT22;32289;42.688;23.330;2024-03-02T18:15:37;8.40;99.90
46562;DHT22;32289;42.688;23.330;2024-03-02T18:19:18;8.30;99.90
46562;DHT22;32289;42.688;23.330;2024-03-02T18:22:58;8.20;99.90
46562;DHT22;32289;42.688;23.330;2024-03-02T18:26:40;8.20;99.90
46562;DHT22;32289;42.688;23.330;2024-03-02T18:30:22;8.10;99.90
46562;DHT22;32289;42.688;23.330;2024-03-02T18:34:08;8.00;99.90
46562;DHT22;32289;42.688;23.330;2024-03-02T18:37:48;8.00;99.90
46562;DHT22;32289;42.688;23.330;2024-03-02T18:41:29;8.00;99.90
46562;DHT22;32289;42.688;23.330;2024-03-02T18:45:10;7.90;99.90
46562;DHT22;32289;42.688;23.330;2024-03-02T18:48:51;7.90;99.90
46562;DHT22;32289;42.688;23.330;2024-03-02T18:52:31;7.80;99.90
46562;DHT22;32289;42.688;23.330;2024-03-02T18:56:15;7.80;99.90
46562;DHT22;32289;42.688;23.330;2024-03-02T18:59:56;7.70;99.90
46562;DHT22;32289;42.688;23.330;2024-03-02T19:03:37;7.60;99.90
46562;DHT22;32289;42.688;23.330;2024-03-02T19:07:18;7.50;99.90
46562;DHT22;32289;42.688;23.330;2024-03-02T19:10:59;7.50;99.90
46562;DHT22;32289;42.688;23.330;2024-03-02T19:14:40;7.60;99.90
46562;DHT22;32289;42.688;23.330;2024-03-02T19:18:20;7.60;99.90
46562;DHT22;32289;42.688;23.330;2024-03-02T19:22:01;7.70;99.90
46562;DHT22;32289;42.688;23.330;2024-03-02T19:25:42;7.80;99.90
46562;DHT22;32289;42.688;23.330;2024-03-02T19:29:23;7.90;99.90
46562;DHT22;32289;42.688;23.330;2024-03-02T19:33:09;7.90;99.90
46562;DHT22;32289;42.688;23.330;2024-03-02T19:36:50;7.90;99.90
46562;DHT22;32289;42.688;23.330;2024-03-02T19:40:30;8.00;99.90
46562;DHT22;32289;42.688;23.330;2024-03-02T19:44:11;7.90;99.90
46562;DHT22;32289;42.688;23.330;2024-03-02T19:47:52;7.90;99.90
46562;DHT22;32289;42.688;23.330;2024-03-02T19:51:33;7.90;99.90
46562;DHT22;32289;42.688;23.330;2024-03-02T19:55:13;7.90;99.90
46562;DHT22;32289;42.688;23.330;2024-03-02T19:58:54;8.00;99.90
46562;DHT22;32289;42.688;23.330;2024-03-02T20:02:35;8.00;99.90
46562;DHT22;32289;42.688;23.330;2024-03-02T20:06:17;8.00;99.90
46562;DHT22;32289;42.688;23.330;2024-03-02T20:09:58;8.00;99.90
46562;DHT22;32289;42.688;23.330;2024-03-02T20:13:39;8.10;99.90
46562;DHT22;32289;42.688;23.330;2024-03-02T20:17:19;8.10;99.90
46562;DHT22;32289;42.688;23.330;2024-03-02T20:21:01;8.00;99.90
46562;DHT22;32289;42.688;23.330;2024-03-02T20:24:43;8.10;99.90
46562;DHT22;32289;42.688;23.330;2024-03-02T20:28:24;8.00;99.90
46562;DHT22;32289;42.688;23.330;2024-03-02T20:32:06;8.10;99.90
46562;DHT22;32289;42.688;23.330;2024-03-02T20:35:47;8.00;99.90
46562;DHT22;32289;42.688;23.330;2024-03-02T20:39:28;8.10;99.90
46562;DHT22;32289;42.688;23.330;2024-03-02T20:43:11;8.10;99.90
46562;DHT22;32289;42.688;23.330;2024-03-02T20:46:55;8.00;99.90
46562;DHT22;32289;42.688;23.330;2024-03-02T20:50:42;8.20;99.90
46562;DHT22;32289;42.688;23.330;2024-03-02T20:54:23;8.20;99.90
46562;DHT22;32289;42.688;23.330;2024-03-02T20:58:04;8.10;99.90
46562;DHT22;32289;42.688;23.330;2024-03-02T21:01:47;8.40;99.90
46562;DHT22;32289;42.688;23.330;2024-03-02T21:05:28;8.30;99.90
46562;DHT22;32289;42.688;23.330;2024-03-02T21:09:08;8.20;99.90
46562;DHT22;32289;42.688;23.330;2024-03-02T21:12:49;8.10;99.90
46562;DHT22;32289;42.688;23.330;2024-03-02T21:16:30;8.10;99.90
46562;DHT22;32289;42.688;23.330;2024-03-02T21:20:11;8.10;99.90
46562;DHT22;32289;42.688;23.330;2024-03-02T21:23:52;8.10;99.90
46562;DHT22;32289;42.688;23.330;2024-03-02T21:27:33;8.30;99.90
46562;DHT22;32289;42.688;23.330;2024-03-02T21:31:15;8.40;99.90
46562;DHT22;32289;42.688;23.330;2024-03-02T21:34:56;7.90;99.90
46562;DHT22;32289;42.688;23.330;2024-03-02T21:38:37;8.10;99.90
46562;DHT22;32289;42.688;23.330;2024-03-02T21:42:18;7.80;99.90
46562;DHT22;32289;42.688;23.330;2024-03-02T21:45:59;7.80;99.90
46562;DHT22;32289;42.688;23.330;2024-03-02T21:49:39;7.70;99.90
46562;DHT22;32289;42.688;23.330;2024-03-02T21:53:20;7.70;99.90
46562;DHT22;32289;42.688;23.330;2024-03-02T21:57:01;7.70;99.90
46562;DHT22;32289;42.688;23.330;2024-03-02T22:00:42;7.70;99.90
46562;DHT22;32289;42.688;23.330;2024-03-02T22:04:23;7.80;99.90
46562;DHT22;32289;42.688;23.330;2024-03-02T22:08:04;7.80;99.90
46562;DHT22;32289;42.688;23.330;2024-03-02T22:11:45;7.80;99.90
46562;DHT22;32289;42.688;23.330;2024-03-02T22:15:26;7.80;99.90
46562;DHT22;32289;42.688;23.330;2024-03-02T22:19:07;7.70;99.90
46562;DHT22;32289;42.688;23.330;2024-03-02T22:22:47;7.70;99.90
46562;DHT22;32289;42.688;23.330;2024-03-02T22:26:28;7.60;99.90
46562;DHT22;32289;42.688;23.330;2024-03-02T22:30:09;7.40;99.90
46562;DHT22;32289;42.688;23.330;2024-03-02T22:33:50;7.10;99.90
46562;DHT22;32289;42.688;23.330;2024-03-02T22:37:30;6.90;99.90
46562;DHT22;32289;42.688;23.330;2024-03-02T22:41:11;6.90;99.90
46562;DHT22;32289;42.688;23.330;2024-03-02T22:44:52;7.00;99.90
46562;DHT22;32289;42.688;23.330;2024-03-02T22:48:33;6.90;99.90
46562;DHT22;32289;42.688;23.330;2024-03-02T22:52:14;7.00;99.90
46562;DHT22;32289;42.688;23.330;2024-03-02T22:55:54;7.20;99.90
46562;DHT22;32289;42.688;23.330;2024-03-02T22:59:36;7.20;99.90
46562;DHT22;32289;42.688;23.330;2024-03-02T23:03:17;7.00;99.90
46562;DHT22;32289;42.688;23.330;2024-03-02T23:06:58;6.90;99.90
46562;DHT22;32289;42.688;23.330;2024-03-02T23:10:39;7.00;99.90
46562;DHT22;32289;42.688;23.330;2024-03-02T23:14:19;6.90;99.90
46562;DHT22;32289;42.688;23.330;2024-03-02T23:18:00;6.90;99.90
46562;DHT22;32289;42.688;23.330;2024-03-02T23:21:41;6.90;99.90